sensor_id;sensor_type;location;lat;lon;timestamp;P1;P2;P0
80413;PMS5003;69758;52.580;13.068;2024-03-02T00:02:24;70;66;
80413;PMS5003;69758;52.580;13.068;2024-03-02T00:04:50;60;59;
80413;PMS5003;69758;52.580;13.068;2024-03-02T00:07:15;75;70;
80413;PMS5003;69758;52.580;13.068;2024-03-02T00:09:40;70;70;
80413;PMS5003;69758;52.580;13.068;2024-03-02T00:12:06;70;66;
80413;PMS5003;69758;52.580;13.068;2024-03-02T00:14:31;69;61;
80413;PMS5003;69758;52.580;13.068;2024-03-02T00:16:56;62;60;
80413;PMS5003;69758;52.580;13.068;2024-03-02T00:19:22;66;60;
80413;PMS5003;69758;52.580;13.068;2024-03-02T00:21:47;61;55;
80413;PMS5003;69758;52.580;13.068;2024-03-02T00:24:17;55;51;
80413;PMS5003;69758;52.580;13.068;2024-03-02T00:26:38;76;67;
80413;PMS5003;69758;52.580;13.068;2024-03-02T00:29:03;54;49;
80413;PMS5003;69758;52.580;13.068;2024-03-02T00:31:28;52;47;
80413;PMS5003;69758;52.580;13.068;2024-03-02T00:33:54;61;59;
80413;PMS5003;69758;52.580;13.068;2024-03-02T00:36:22;53;52;
80413;PMS5003;69758;52.580;13.068;2024-03-02T00:38:45;46;45;
80413;PMS5003;69758;52.580;13.068;2024-03-02T00:41:15;54;52;
80413;PMS5003;69758;52.580;13.068;2024-03-02T00:43:38;45;45;
80413;PMS5003;69758;52.580;13.068;2024-03-02T00:46:00;61;54;
80413;PMS5003;69758;52.580;13.068;2024-03-02T00:48:26;60;56;
80413;PMS5003;69758;52.580;13.068;2024-03-02T00:50:52;51;45;
80413;PMS5003;69758;52.580;13.068;2024-03-02T00:53:17;67;59;
80413;PMS5003;69758;52.580;13.068;2024-03-02T00:55:42;53;47;
80413;PMS5003;69758;52.580;13.068;2024-03-02T00:58:08;65;59;
80413;PMS5003;69758;52.580;13.068;2024-03-02T01:00:33;60;55;
80413;PMS5003;69758;52.580;13.068;2024-03-02T01:02:59;48;46;
80413;PMS5003;69758;52.580;13.068;2024-03-02T01:05:25;53;49;
80413;PMS5003;69758;52.580;13.068;2024-03-02T01:07:50;63;56;
80413;PMS5003;69758;52.580;13.068;2024-03-02T01:10:16;56;51;
80413;PMS5003;69758;52.580;13.068;2024-03-02T01:12:41;46;45;
80413;PMS5003;69758;52.580;13.068;2024-03-02T01:15:08;72;64;
80413;PMS5003;69758;52.580;13.068;2024-03-02T01:17:33;80;75;
80413;PMS5003;69758;52.580;13.068;2024-03-02T01:19:58;62;56;
80413;PMS5003;69758;52.580;13.068;2024-03-02T01:22:24;63;58;
80413;PMS5003;69758;52.580;13.068;2024-03-02T01:24:49;60;53;
80413;PMS5003;69758;52.580;13.068;2024-03-02T01:27:14;55;53;
80413;PMS5003;69758;52.580;13.068;2024-03-02T01:29:40;61;54;
80413;PMS5003;69758;52.580;13.068;2024-03-02T01:32:06;65;62;
80413;PMS5003;69758;52.580;13.068;2024-03-02T01:34:31;56;55;
80413;PMS5003;69758;52.580;13.068;2024-03-02T01:36:56;56;54;
80413;PMS5003;69758;52.580;13.068;2024-03-02T01:39:21;62;56;
80413;PMS5003;69758;52.580;13.068;2024-03-02T01:41:47;56;52;
80413;PMS5003;69758;52.580;13.068;2024-03-02T01:44:12;58;54;
80413;PMS5003;69758;52.580;13.068;2024-03-02T01:46:38;57;50;
80413;PMS5003;69758;52.580;13.068;2024-03-02T01:49:04;62;55;
80413;PMS5003;69758;52.580;13.068;2024-03-02T01:51:29;62;57;
80413;PMS5003;69758;52.580;13.068;2024-03-02T01:53:55;58;57;
80413;PMS5003;69758;52.580;13.068;2024-03-02T01:56:20;64;59;
80413;PMS5003;69758;52.580;13.068;2024-03-02T01:58:45;57;54;
80413;PMS5003;69758;52.580;13.068;2024-03-02T02:01:11;58;53;
80413;PMS5003;69758;52.580;13.068;2024-03-02T02:03:36;56;53;
80413;PMS5003;69758;52.580;13.068;2024-03-02T02:06:03;54;51;
80413;PMS5003;69758;52.580;13.068;2024-03-02T02:08:28;55;47;
80413;PMS5003;69758;52.580;13.068;2024-03-02T02:10:53;63;57;
80413;PMS5003;69758;52.580;13.068;2024-03-02T02:13:19;62;56;
80413;PMS5003;69758;52.580;13.068;2024-03-02T02:15:44;55;53;
80413;PMS5003;69758;52.580;13.068;2024-03-02T02:18:09;60;57;
80413;PMS5003;69758;52.580;13.068;2024-03-02T02:20:34;67;57;
80413;PMS5003;69758;52.580;13.068;2024-03-02T02:23:00;57;54;
80413;PMS5003;69758;52.580;13.068;2024-03-02T02:25:26;61;56;
80413;PMS5003;69758;52.580;13.068;2024-03-02T02:27:52;55;52;
80413;PMS5003;69758;52.580;13.068;2024-03-02T02:30:18;48;44;
80413;PMS5003;69758;52.580;13.068;2024-03-02T02:32:42;49;47;
80413;PMS5003;69758;52.580;13.068;2024-03-02T02:35:08;55;49;
80413;PMS5003;69758;52.580;13.068;2024-03-02T02:37:33;61;55;
80413;PMS5003;69758;52.580;13.068;2024-03-02T02:39:59;52;47;
80413;PMS5003;69758;52.580;13.068;2024-03-02T02:42:24;54;48;
80413;PMS5003;69758;52.580;13.068;2024-03-02T02:44:50;49;47;
80413;PMS5003;69758;52.580;13.068;2024-03-02T02:47:15;53;51;
80413;PMS5003;69758;52.580;13.068;2024-03-02T02:49:41;57;52;
80413;PMS5003;69758;52.580;13.068;2024-03-02T02:52:06;46;45;
80413;PMS5003;69758;52.580;13.068;2024-03-02T02:54:32;50;47;
80413;PMS5003;69758;52.580;13.068;2024-03-02T02:56:57;54;53;
80413;PMS5003;69758;52.580;13.068;2024-03-02T02:59:23;62;53;
80413;PMS5003;69758;52.580;13.068;2024-03-02T03:01:48;52;46;
80413;PMS5003;69758;52.580;13.068;2024-03-02T03:04:14;59;54;
80413;PMS5003;69758;52.580;13.068;2024-03-02T03:06:39;58;55;
80413;PMS5003;69758;52.580;13.068;2024-03-02T03:09:05;58;55;
80413;PMS5003;69758;52.580;13.068;2024-03-02T03:11:30;54;51;
80413;PMS5003;69758;52.580;13.068;2024-03-02T03:13:55;55;54;
80413;PMS5003;69758;52.580;13.068;2024-03-02T03:16:21;57;52;
80413;PMS5003;69758;52.580;13.068;2024-03-02T03:18:46;55;52;
80413;PMS5003;69758;52.580;13.068;2024-03-02T03:21:12;56;50;
80413;PMS5003;69758;52.580;13.068;2024-03-02T03:23:37;56;54;
80413;PMS5003;69758;52.580;13.068;2024-03-02T03:26:03;58;55;
80413;PMS5003;69758;52.580;13.068;2024-03-02T03:28:28;69;66;
80413;PMS5003;69758;52.580;13.068;2024-03-02T03:30:54;63;58;
80413;PMS5003;69758;52.580;13.068;2024-03-02T03:33:20;75;67;
80413;PMS5003;69758;52.580;13.068;2024-03-02T03:35:46;64;64;
80413;PMS5003;69758;52.580;13.068;2024-03-02T03:38:11;56;51;
80413;PMS5003;69758;52.580;13.068;2024-03-02T03:40:36;58;57;
80413;PMS5003;69758;52.580;13.068;2024-03-02T03:43:03;57;55;
80413;PMS5003;69758;52.580;13.068;2024-03-02T03:45:27;61;58;
80413;PMS5003;69758;52.580;13.068;2024-03-02T03:47:53;59;56;
80413;PMS5003;69758;52.580;13.068;2024-03-02T03:50:19;67;62;
80413;PMS5003;69758;52.580;13.068;2024-03-02T03:52:45;65;62;
80413;PMS5003;69758;52.580;13.068;2024-03-02T03:55:10;65;58;
80413;PMS5003;69758;52.580;13.068;2024-03-02T03:57:36;66;61;
80413;PMS5003;69758;52.580;13.068;2024-03-02T04:00:01;67;64;
80413;PMS5003;69758;52.580;13.068;2024-03-02T04:02:26;67;61;
80413;PMS5003;69758;52.580;13.068;2024-03-02T04:04:52;69;63;
80413;PMS5003;69758;52.580;13.068;2024-03-02T04:07:17;57;54;
80413;PMS5003;69758;52.580;13.068;2024-03-02T04:09:42;58;55;
80413;PMS5003;69758;52.580;13.068;2024-03-02T04:12:08;66;64;
80413;PMS5003;69758;52.580;13.068;2024-03-02T04:14:33;63;57;
80413;PMS5003;69758;52.580;13.068;2024-03-02T04:16:59;58;57;
80413;PMS5003;69758;52.580;13.068;2024-03-02T04:19:24;55;54;
80413;PMS5003;69758;52.580;13.068;2024-03-02T04:21:49;57;56;
80413;PMS5003;69758;52.580;13.068;2024-03-02T04:24:15;59;55;
80413;PMS5003;69758;52.580;13.068;2024-03-02T04:26:40;62;59;
80413;PMS5003;69758;52.580;13.068;2024-03-02T04:29:06;62;57;
80413;PMS5003;69758;52.580;13.068;2024-03-02T04:31:31;61;58;
80413;PMS5003;69758;52.580;13.068;2024-03-02T04:33:57;58;56;
80413;PMS5003;69758;52.580;13.068;2024-03-02T04:36:22;62;60;
80413;PMS5003;69758;52.580;13.068;2024-03-02T04:38:47;72;65;
80413;PMS5003;69758;52.580;13.068;2024-03-02T04:41:13;61;55;
80413;PMS5003;69758;52.580;13.068;2024-03-02T04:43:38;52;51;
80413;PMS5003;69758;52.580;13.068;2024-03-02T04:46:04;60;60;
80413;PMS5003;69758;52.580;13.068;2024-03-02T04:48:29;62;58;
80413;PMS5003;69758;52.580;13.068;2024-03-02T04:50:54;62;58;
80413;PMS5003;69758;52.580;13.068;2024-03-02T04:53:20;63;61;
80413;PMS5003;69758;52.580;13.068;2024-03-02T04:55:46;59;54;
80413;PMS5003;69758;52.580;13.068;2024-03-02T04:58:11;66;59;
80413;PMS5003;69758;52.580;13.068;2024-03-02T05:00:36;56;51;
80413;PMS5003;69758;52.580;13.068;2024-03-02T05:03:02;64;59;
80413;PMS5003;69758;52.580;13.068;2024-03-02T05:05:27;64;62;
80413;PMS5003;69758;52.580;13.068;2024-03-02T05:07:52;60;58;
80413;PMS5003;69758;52.580;13.068;2024-03-02T05:10:17;61;57;
80413;PMS5003;69758;52.580;13.068;2024-03-02T05:12:42;63;59;
80413;PMS5003;69758;52.580;13.068;2024-03-02T05:15:08;53;52;
80413;PMS5003;69758;52.580;13.068;2024-03-02T05:17:33;63;61;
80413;PMS5003;69758;52.580;13.068;2024-03-02T05:19:59;62;59;
80413;PMS5003;69758;52.580;13.068;2024-03-02T05:22:24;64;61;
80413;PMS5003;69758;52.580;13.068;2024-03-02T05:24:49;63;60;
80413;PMS5003;69758;52.580;13.068;2024-03-02T05:27:15;66;62;
80413;PMS5003;69758;52.580;13.068;2024-03-02T05:29:40;64;57;
80413;PMS5003;69758;52.580;13.068;2024-03-02T05:32:06;72;65;
80413;PMS5003;69758;52.580;13.068;2024-03-02T05:34:32;54;53;
80413;PMS5003;69758;52.580;13.068;2024-03-02T05:37:02;66;64;
80413;PMS5003;69758;52.580;13.068;2024-03-02T05:39:23;61;59;
80413;PMS5003;69758;52.580;13.068;2024-03-02T05:41:53;65;62;
80413;PMS5003;69758;52.580;13.068;2024-03-02T05:44:14;74;70;
80413;PMS5003;69758;52.580;13.068;2024-03-02T05:46:40;63;61;
80413;PMS5003;69758;52.580;13.068;2024-03-02T05:49:05;73;64;
80413;PMS5003;69758;52.580;13.068;2024-03-02T05:51:30;61;57;
80413;PMS5003;69758;52.580;13.068;2024-03-02T05:53:56;62;61;
80413;PMS5003;69758;52.580;13.068;2024-03-02T05:56:21;65;61;
80413;PMS5003;69758;52.580;13.068;2024-03-02T05:58:47;64;57;
80413;PMS5003;69758;52.580;13.068;2024-03-02T06:01:12;68;61;
80413;PMS5003;69758;52.580;13.068;2024-03-02T06:03:38;61;57;
80413;PMS5003;69758;52.580;13.068;2024-03-02T06:06:04;64;57;
80413;PMS5003;69758;52.580;13.068;2024-03-02T06:08:28;71;64;
80413;PMS5003;69758;52.580;13.068;2024-03-02T06:10:54;64;59;
80413;PMS5003;69758;52.580;13.068;2024-03-02T06:13:20;70;66;
80413;PMS5003;69758;52.580;13.068;2024-03-02T06:15:45;59;59;
80413;PMS5003;69758;52.580;13.068;2024-03-02T06:18:10;65;64;
80413;PMS5003;69758;52.580;13.068;2024-03-02T06:20:36;59;56;
80413;PMS5003;69758;52.580;13.068;2024-03-02T06:23:02;68;67;
80413;PMS5003;69758;52.580;13.068;2024-03-02T06:25:27;66;65;
80413;PMS5003;69758;52.580;13.068;2024-03-02T06:27:52;70;62;
80413;PMS5003;69758;52.580;13.068;2024-03-02T06:30:18;66;60;
80413;PMS5003;69758;52.580;13.068;2024-03-02T06:32:44;65;62;
80413;PMS5003;69758;52.580;13.068;2024-03-02T06:35:09;65;59;
80413;PMS5003;69758;52.580;13.068;2024-03-02T06:37:35;65;59;
80413;PMS5003;69758;52.580;13.068;2024-03-02T06:40:01;63;57;
80413;PMS5003;69758;52.580;13.068;2024-03-02T06:42:26;61;59;
80413;PMS5003;69758;52.580;13.068;2024-03-02T06:44:51;53;49;
80413;PMS5003;69758;52.580;13.068;2024-03-02T06:47:16;63;59;
80413;PMS5003;69758;52.580;13.068;2024-03-02T06:49:42;57;55;
80413;PMS5003;69758;52.580;13.068;2024-03-02T06:52:07;59;55;
80413;PMS5003;69758;52.580;13.068;2024-03-02T06:54:33;65;63;
80413;PMS5003;69758;52.580;13.068;2024-03-02T06:56:58;60;59;
80413;PMS5003;69758;52.580;13.068;2024-03-02T06:59:23;59;56;
80413;PMS5003;69758;52.580;13.068;2024-03-02T07:01:49;61;55;
80413;PMS5003;69758;52.580;13.068;2024-03-02T07:04:14;54;48;
80413;PMS5003;69758;52.580;13.068;2024-03-02T07:06:40;61;58;
80413;PMS5003;69758;52.580;13.068;2024-03-02T07:09:05;66;61;
80413;PMS5003;69758;52.580;13.068;2024-03-02T07:11:30;62;57;
80413;PMS5003;69758;52.580;13.068;2024-03-02T07:13:56;69;59;
80413;PMS5003;69758;52.580;13.068;2024-03-02T07:16:22;77;70;
80413;PMS5003;69758;52.580;13.068;2024-03-02T07:18:47;82;77;
80413;PMS5003;69758;52.580;13.068;2024-03-02T07:21:12;67;62;
80413;PMS5003;69758;52.580;13.068;2024-03-02T07:23:37;71;66;
80413;PMS5003;69758;52.580;13.068;2024-03-02T07:26:03;74;70;
80413;PMS5003;69758;52.580;13.068;2024-03-02T07:28:28;70;65;
80413;PMS5003;69758;52.580;13.068;2024-03-02T07:30:57;60;59;
80413;PMS5003;69758;52.580;13.068;2024-03-02T07:33:19;63;56;
80413;PMS5003;69758;52.580;13.068;2024-03-02T07:35:45;66;59;
80413;PMS5003;69758;52.580;13.068;2024-03-02T07:38:10;63;61;
80413;PMS5003;69758;52.580;13.068;2024-03-02T07:40:35;57;52;
80413;PMS5003;69758;52.580;13.068;2024-03-02T07:43:01;73;68;
80413;PMS5003;69758;52.580;13.068;2024-03-02T07:45:26;59;56;
80413;PMS5003;69758;52.580;13.068;2024-03-02T07:47:51;67;61;
80413;PMS5003;69758;52.580;13.068;2024-03-02T07:50:17;70;67;
80413;PMS5003;69758;52.580;13.068;2024-03-02T07:52:43;62;54;
80413;PMS5003;69758;52.580;13.068;2024-03-02T07:55:08;66;62;
80413;PMS5003;69758;52.580;13.068;2024-03-02T07:57:33;61;58;
80413;PMS5003;69758;52.580;13.068;2024-03-02T07:59:58;61;59;
80413;PMS5003;69758;52.580;13.068;2024-03-02T08:02:24;65;62;
80413;PMS5003;69758;52.580;13.068;2024-03-02T08:04:49;70;63;
80413;PMS5003;69758;52.580;13.068;2024-03-02T08:07:14;64;58;
80413;PMS5003;69758;52.580;13.068;2024-03-02T08:09:40;77;72;
80413;PMS5003;69758;52.580;13.068;2024-03-02T08:12:05;73;71;
80413;PMS5003;69758;52.580;13.068;2024-03-02T08:14:31;82;77;
80413;PMS5003;69758;52.580;13.068;2024-03-02T08:16:56;68;61;
80413;PMS5003;69758;52.580;13.068;2024-03-02T08:19:21;71;70;
80413;PMS5003;69758;52.580;13.068;2024-03-02T08:21:46;64;58;
80413;PMS5003;69758;52.580;13.068;2024-03-02T08:24:12;53;51;
80413;PMS5003;69758;52.580;13.068;2024-03-02T08:26:37;53;50;
80413;PMS5003;69758;52.580;13.068;2024-03-02T08:29:02;58;54;
80413;PMS5003;69758;52.580;13.068;2024-03-02T08:31:28;60;53;
80413;PMS5003;69758;52.580;13.068;2024-03-02T08:33:53;63;60;
80413;PMS5003;69758;52.580;13.068;2024-03-02T08:36:23;55;54;
80413;PMS5003;69758;52.580;13.068;2024-03-02T08:38:44;55;52;
80413;PMS5003;69758;52.580;13.068;2024-03-02T08:41:09;62;59;
80413;PMS5003;69758;52.580;13.068;2024-03-02T08:43:35;65;60;
80413;PMS5003;69758;52.580;13.068;2024-03-02T08:46:01;62;56;
80413;PMS5003;69758;52.580;13.068;2024-03-02T08:48:26;63;59;
80413;PMS5003;69758;52.580;13.068;2024-03-02T08:50:51;57;53;
80413;PMS5003;69758;52.580;13.068;2024-03-02T08:53:17;64;63;
80413;PMS5003;69758;52.580;13.068;2024-03-02T08:55:43;68;62;
80413;PMS5003;69758;52.580;13.068;2024-03-02T08:58:08;70;64;
80413;PMS5003;69758;52.580;13.068;2024-03-02T09:00:33;70;65;
80413;PMS5003;69758;52.580;13.068;2024-03-02T09:02:59;71;70;
80413;PMS5003;69758;52.580;13.068;2024-03-02T09:05:24;72;65;
80413;PMS5003;69758;52.580;13.068;2024-03-02T09:07:49;61;60;
80413;PMS5003;69758;52.580;13.068;2024-03-02T09:10:15;63;62;
80413;PMS5003;69758;52.580;13.068;2024-03-02T09:12:40;62;59;
80413;PMS5003;69758;52.580;13.068;2024-03-02T09:15:06;64;60;
80413;PMS5003;69758;52.580;13.068;2024-03-02T09:17:31;64;62;
80413;PMS5003;69758;52.580;13.068;2024-03-02T09:19:56;63;57;
80413;PMS5003;69758;52.580;13.068;2024-03-02T09:22:22;69;64;
80413;PMS5003;69758;52.580;13.068;2024-03-02T09:24:47;66;61;
80413;PMS5003;69758;52.580;13.068;2024-03-02T09:27:12;69;65;
80413;PMS5003;69758;52.580;13.068;2024-03-02T09:29:37;64;59;
80413;PMS5003;69758;52.580;13.068;2024-03-02T09:32:02;71;67;
80413;PMS5003;69758;52.580;13.068;2024-03-02T09:34:28;67;60;
80413;PMS5003;69758;52.580;13.068;2024-03-02T09:36:53;71;65;
80413;PMS5003;69758;52.580;13.068;2024-03-02T09:39:18;64;59;
80413;PMS5003;69758;52.580;13.068;2024-03-02T09:41:43;62;58;
80413;PMS5003;69758;52.580;13.068;2024-03-02T09:44:08;63;59;
80413;PMS5003;69758;52.580;13.068;2024-03-02T09:46:34;78;71;
80413;PMS5003;69758;52.580;13.068;2024-03-02T09:48:59;66;58;
80413;PMS5003;69758;52.580;13.068;2024-03-02T09:51:25;58;56;
80413;PMS5003;69758;52.580;13.068;2024-03-02T09:53:51;67;57;
80413;PMS5003;69758;52.580;13.068;2024-03-02T09:56:16;83;80;
80413;PMS5003;69758;52.580;13.068;2024-03-02T09:58:42;65;60;
80413;PMS5003;69758;52.580;13.068;2024-03-02T10:01:07;53;51;
80413;PMS5003;69758;52.580;13.068;2024-03-02T10:03:33;66;64;
80413;PMS5003;69758;52.580;13.068;2024-03-02T10:08:24;65;57;
80413;PMS5003;69758;52.580;13.068;2024-03-02T10:10:50;65;59;
80413;PMS5003;69758;52.580;13.068;2024-03-02T10:13:15;55;53;
80413;PMS5003;69758;52.580;13.068;2024-03-02T10:15:41;51;45;
80413;PMS5003;69758;52.580;13.068;2024-03-02T10:18:08;58;55;
80413;PMS5003;69758;52.580;13.068;2024-03-02T10:20:33;50;47;
80413;PMS5003;69758;52.580;13.068;2024-03-02T10:22:59;57;50;
80413;PMS5003;69758;52.580;13.068;2024-03-02T10:25:29;64;60;
80413;PMS5003;69758;52.580;13.068;2024-03-02T10:27:50;75;67;
80413;PMS5003;69758;52.580;13.068;2024-03-02T10:30:15;68;62;
80413;PMS5003;69758;52.580;13.068;2024-03-02T10:32:40;59;54;
80413;PMS5003;69758;52.580;13.068;2024-03-02T10:35:05;63;60;
80413;PMS5003;69758;52.580;13.068;2024-03-02T10:37:31;54;50;
80413;PMS5003;69758;52.580;13.068;2024-03-02T10:39:56;59;58;
80413;PMS5003;69758;52.580;13.068;2024-03-02T10:42:22;56;54;
80413;PMS5003;69758;52.580;13.068;2024-03-02T10:44:48;58;54;
80413;PMS5003;69758;52.580;13.068;2024-03-02T10:47:13;46;43;
80413;PMS5003;69758;52.580;13.068;2024-03-02T10:49:39;68;61;
80413;PMS5003;69758;52.580;13.068;2024-03-02T10:52:04;55;49;
80413;PMS5003;69758;52.580;13.068;2024-03-02T10:54:29;61;55;
80413;PMS5003;69758;52.580;13.068;2024-03-02T10:56:56;54;53;
80413;PMS5003;69758;52.580;13.068;2024-03-02T10:59:24;58;54;
80413;PMS5003;69758;52.580;13.068;2024-03-02T11:01:46;51;48;
80413;PMS5003;69758;52.580;13.068;2024-03-02T11:04:12;57;54;
80413;PMS5003;69758;52.580;13.068;2024-03-02T11:06:37;54;51;
80413;PMS5003;69758;52.580;13.068;2024-03-02T11:09:03;49;47;
80413;PMS5003;69758;52.580;13.068;2024-03-02T11:11:30;52;51;
80413;PMS5003;69758;52.580;13.068;2024-03-02T11:13:54;56;52;
80413;PMS5003;69758;52.580;13.068;2024-03-02T11:16:22;49;47;
80413;PMS5003;69758;52.580;13.068;2024-03-02T11:18:45;59;57;
80413;PMS5003;69758;52.580;13.068;2024-03-02T11:21:10;55;51;
80413;PMS5003;69758;52.580;13.068;2024-03-02T11:23:36;53;49;
80413;PMS5003;69758;52.580;13.068;2024-03-02T11:30:52;50;47;
80413;PMS5003;69758;52.580;13.068;2024-03-02T11:35:42;53;52;
80413;PMS5003;69758;52.580;13.068;2024-03-02T11:38:07;53;49;
80413;PMS5003;69758;52.580;13.068;2024-03-02T11:40:32;45;44;
80413;PMS5003;69758;52.580;13.068;2024-03-02T11:42:59;41;37;
80413;PMS5003;69758;52.580;13.068;2024-03-02T11:45:23;46;41;
80413;PMS5003;69758;52.580;13.068;2024-03-02T11:47:49;39;38;
80413;PMS5003;69758;52.580;13.068;2024-03-02T11:50:13;58;53;
80413;PMS5003;69758;52.580;13.068;2024-03-02T11:52:38;56;52;
80413;PMS5003;69758;52.580;13.068;2024-03-02T11:55:04;44;38;
80413;PMS5003;69758;52.580;13.068;2024-03-02T11:57:29;45;44;
80413;PMS5003;69758;52.580;13.068;2024-03-02T11:59:54;39;36;
80413;PMS5003;69758;52.580;13.068;2024-03-02T12:02:20;44;39;
80413;PMS5003;69758;52.580;13.068;2024-03-02T12:04:45;39;34;
80413;PMS5003;69758;52.580;13.068;2024-03-02T12:07:11;38;36;
80413;PMS5003;69758;52.580;13.068;2024-03-02T12:09:35;40;38;
80413;PMS5003;69758;52.580;13.068;2024-03-02T12:12:01;42;39;
80413;PMS5003;69758;52.580;13.068;2024-03-02T12:14:26;47;44;
80413;PMS5003;69758;52.580;13.068;2024-03-02T12:16:51;36;36;
80413;PMS5003;69758;52.580;13.068;2024-03-02T12:19:17;40;39;
80413;PMS5003;69758;52.580;13.068;2024-03-02T12:21:43;38;37;
80413;PMS5003;69758;52.580;13.068;2024-03-02T12:24:08;46;45;
80413;PMS5003;69758;52.580;13.068;2024-03-02T12:26:33;37;35;
80413;PMS5003;69758;52.580;13.068;2024-03-02T12:28:59;56;50;
80413;PMS5003;69758;52.580;13.068;2024-03-02T12:31:24;40;39;
80413;PMS5003;69758;52.580;13.068;2024-03-02T12:33:49;43;39;
80413;PMS5003;69758;52.580;13.068;2024-03-02T12:36:15;38;36;
80413;PMS5003;69758;52.580;13.068;2024-03-02T12:38:43;41;37;
80413;PMS5003;69758;52.580;13.068;2024-03-02T12:41:06;42;38;
80413;PMS5003;69758;52.580;13.068;2024-03-02T12:43:32;35;33;
80413;PMS5003;69758;52.580;13.068;2024-03-02T12:45:57;32;28;
80413;PMS5003;69758;52.580;13.068;2024-03-02T12:48:22;32;30;
80413;PMS5003;69758;52.580;13.068;2024-03-02T12:50:48;29;29;
80413;PMS5003;69758;52.580;13.068;2024-03-02T12:53:14;30;28;
80413;PMS5003;69758;52.580;13.068;2024-03-02T12:55:39;31;29;
80413;PMS5003;69758;52.580;13.068;2024-03-02T12:58:04;27;26;
80413;PMS5003;69758;52.580;13.068;2024-03-02T13:00:30;33;30;
80413;PMS5003;69758;52.580;13.068;2024-03-02T13:02:56;28;25;
80413;PMS5003;69758;52.580;13.068;2024-03-02T13:05:21;31;31;
80413;PMS5003;69758;52.580;13.068;2024-03-02T13:07:47;35;34;
80413;PMS5003;69758;52.580;13.068;2024-03-02T13:10:12;39;38;
80413;PMS5003;69758;52.580;13.068;2024-03-02T13:12:37;29;29;
80413;PMS5003;69758;52.580;13.068;2024-03-02T13:15:04;37;37;
80413;PMS5003;69758;52.580;13.068;2024-03-02T13:17:29;29;27;
80413;PMS5003;69758;52.580;13.068;2024-03-02T13:19:55;27;26;
80413;PMS5003;69758;52.580;13.068;2024-03-02T13:22:20;37;37;
80413;PMS5003;69758;52.580;13.068;2024-03-02T13:24:45;34;33;
80413;PMS5003;69758;52.580;13.068;2024-03-02T13:27:10;25;24;
80413;PMS5003;69758;52.580;13.068;2024-03-02T13:29:35;27;27;
80413;PMS5003;69758;52.580;13.068;2024-03-02T13:32:01;30;29;
80413;PMS5003;69758;52.580;13.068;2024-03-02T13:34:26;24;22;
80413;PMS5003;69758;52.580;13.068;2024-03-02T13:36:52;23;23;
80413;PMS5003;69758;52.580;13.068;2024-03-02T13:39:18;25;23;
80413;PMS5003;69758;52.580;13.068;2024-03-02T13:41:43;25;23;
80413;PMS5003;69758;52.580;13.068;2024-03-02T13:44:08;22;20;
80413;PMS5003;69758;52.580;13.068;2024-03-02T13:46:33;24;23;
80413;PMS5003;69758;52.580;13.068;2024-03-02T13:48:59;25;25;
80413;PMS5003;69758;52.580;13.068;2024-03-02T13:51:24;22;22;
80413;PMS5003;69758;52.580;13.068;2024-03-02T13:53:50;31;26;
80413;PMS5003;69758;52.580;13.068;2024-03-02T13:56:15;24;23;
80413;PMS5003;69758;52.580;13.068;2024-03-02T13:58:40;28;27;
80413;PMS5003;69758;52.580;13.068;2024-03-02T14:01:06;24;23;
80413;PMS5003;69758;52.580;13.068;2024-03-02T14:03:31;21;21;
80413;PMS5003;69758;52.580;13.068;2024-03-02T14:05:56;33;31;
80413;PMS5003;69758;52.580;13.068;2024-03-02T14:08:22;31;28;
80413;PMS5003;69758;52.580;13.068;2024-03-02T14:10:47;28;28;
80413;PMS5003;69758;52.580;13.068;2024-03-02T14:13:13;27;26;
80413;PMS5003;69758;52.580;13.068;2024-03-02T14:15:38;31;28;
80413;PMS5003;69758;52.580;13.068;2024-03-02T14:18:03;26;26;
80413;PMS5003;69758;52.580;13.068;2024-03-02T14:20:28;32;29;
80413;PMS5003;69758;52.580;13.068;2024-03-02T14:22:54;23;22;
80413;PMS5003;69758;52.580;13.068;2024-03-02T14:25:20;20;19;
80413;PMS5003;69758;52.580;13.068;2024-03-02T14:27:45;26;26;
80413;PMS5003;69758;52.580;13.068;2024-03-02T14:30:11;29;28;
80413;PMS5003;69758;52.580;13.068;2024-03-02T14:32:36;36;32;
80413;PMS5003;69758;52.580;13.068;2024-03-02T14:35:01;37;34;
80413;PMS5003;69758;52.580;13.068;2024-03-02T14:37:27;41;35;
80413;PMS5003;69758;52.580;13.068;2024-03-02T14:39:52;33;32;
80413;PMS5003;69758;52.580;13.068;2024-03-02T14:42:17;31;30;
80413;PMS5003;69758;52.580;13.068;2024-03-02T14:44:43;23;22;
80413;PMS5003;69758;52.580;13.068;2024-03-02T14:47:09;24;22;
80413;PMS5003;69758;52.580;13.068;2024-03-02T14:49:34;22;21;
80413;PMS5003;69758;52.580;13.068;2024-03-02T14:51:59;18;17;
80413;PMS5003;69758;52.580;13.068;2024-03-02T14:54:25;24;22;
80413;PMS5003;69758;52.580;13.068;2024-03-02T14:56:50;28;23;
80413;PMS5003;69758;52.580;13.068;2024-03-02T14:59:16;32;31;
80413;PMS5003;69758;52.580;13.068;2024-03-02T15:01:41;29;28;
80413;PMS5003;69758;52.580;13.068;2024-03-02T15:04:07;23;23;
80413;PMS5003;69758;52.580;13.068;2024-03-02T15:06:33;22;19;
80413;PMS5003;69758;52.580;13.068;2024-03-02T15:08:58;31;30;
80413;PMS5003;69758;52.580;13.068;2024-03-02T15:11:23;24;24;
80413;PMS5003;69758;52.580;13.068;2024-03-02T15:13:49;24;23;
80413;PMS5003;69758;52.580;13.068;2024-03-02T15:16:14;26;26;
80413;PMS5003;69758;52.580;13.068;2024-03-02T15:18:39;29;27;
80413;PMS5003;69758;52.580;13.068;2024-03-02T15:21:04;25;25;
80413;PMS5003;69758;52.580;13.068;2024-03-02T15:23:29;24;24;
80413;PMS5003;69758;52.580;13.068;2024-03-02T15:25:55;25;25;
80413;PMS5003;69758;52.580;13.068;2024-03-02T15:28:20;24;23;
80413;PMS5003;69758;52.580;13.068;2024-03-02T15:30:46;27;25;
80413;PMS5003;69758;52.580;13.068;2024-03-02T15:33:11;22;21;
80413;PMS5003;69758;52.580;13.068;2024-03-02T15:35:36;33;30;
80413;PMS5003;69758;52.580;13.068;2024-03-02T15:38:03;26;25;
80413;PMS5003;69758;52.580;13.068;2024-03-02T15:40:27;23;22;
80413;PMS5003;69758;52.580;13.068;2024-03-02T15:42:53;30;28;
80413;PMS5003;69758;52.580;13.068;2024-03-02T15:45:19;23;23;
80413;PMS5003;69758;52.580;13.068;2024-03-02T15:47:45;26;25;
80413;PMS5003;69758;52.580;13.068;2024-03-02T15:50:10;23;22;
80413;PMS5003;69758;52.580;13.068;2024-03-02T15:52:35;21;20;
80413;PMS5003;69758;52.580;13.068;2024-03-02T15:55:01;22;20;
80413;PMS5003;69758;52.580;13.068;2024-03-02T15:57:26;22;21;
80413;PMS5003;69758;52.580;13.068;2024-03-02T15:59:52;22;21;